sensor_id;sensor_type;location;lat;lon;timestamp;temperature;humidity
78028;DHT22;74605;45.864;11.474;2024-03-06T07:47:06;6.10;88.00
78028;DHT22;74605;45.864;11.474;2024-03-06T07:49:33;7.80;82.40
78028;DHT22;74605;45.864;11.474;2024-03-06T07:51:58;7.80;81.90
78028;DHT22;74605;45.864;11.474;2024-03-06T07:54:24;7.80;81.30
78028;DHT22;74605;45.864;11.474;2024-03-06T07:56:50;7.80;81.00
78028;DHT22;74605;45.864;11.474;2024-03-06T07:59:17;7.80;81.00
78028;DHT22;74605;45.864;11.474;2024-03-06T08:01:43;7.80;80.40
78028;DHT22;74605;45.864;11.474;2024-03-06T08:04:09;7.80;80.20
78028;DHT22;74605;45.864;11.474;2024-03-06T08:06:35;7.60;80.70
78028;DHT22;74605;45.864;11.474;2024-03-06T08:09:03;7.60;80.30
78028;DHT22;74605;45.864;11.474;2024-03-06T08:11:29;7.50;80.60
78028;DHT22;74605;45.864;11.474;2024-03-06T08:13:59;7.70;82.00
78028;DHT22;74605;45.864;11.474;2024-03-06T08:16:25;7.90;80.40
78028;DHT22;74605;45.864;11.474;2024-03-06T08:18:51;8.00;79.80
78028;DHT22;74605;45.864;11.474;2024-03-06T08:21:17;8.10;80.00
78028;DHT22;74605;45.864;11.474;2024-03-06T08:23:44;8.40;79.80
78028;DHT22;74605;45.864;11.474;2024-03-06T08:26:10;8.70;78.90
78028;DHT22;74605;45.864;11.474;2024-03-06T08:28:37;8.70;78.60
78028;DHT22;74605;45.864;11.474;2024-03-06T08:31:03;8.90;78.50
78028;DHT22;74605;45.864;11.474;2024-03-06T08:33:29;9.00;78.40
78028;DHT22;74605;45.864;11.474;2024-03-06T08:35:55;9.30;77.90
78028;DHT22;74605;45.864;11.474;2024-03-06T08:38:21;9.10;77.50
78028;DHT22;74605;45.864;11.474;2024-03-06T08:40:46;8.90;77.70
78028;DHT22;74605;45.864;11.474;2024-03-06T08:43:13;8.90;78.10
78028;DHT22;74605;45.864;11.474;2024-03-06T08:45:41;9.30;78.10
78028;DHT22;74605;45.864;11.474;2024-03-06T08:48:07;9.00;76.90
78028;DHT22;74605;45.864;11.474;2024-03-06T08:50:34;9.30;76.90
78028;DHT22;74605;45.864;11.474;2024-03-06T08:53:00;9.90;77.00
78028;DHT22;74605;45.864;11.474;2024-03-06T08:55:28;10.30;75.50
78028;DHT22;74605;45.864;11.474;2024-03-06T08:57:54;10.60;75.20
78028;DHT22;74605;45.864;11.474;2024-03-06T09:00:20;10.40;74.40
78028;DHT22;74605;45.864;11.474;2024-03-06T09:02:45;10.30;75.50
78028;DHT22;74605;45.864;11.474;2024-03-06T09:05:11;10.30;75.30
78028;DHT22;74605;45.864;11.474;2024-03-06T09:07:39;10.20;75.20
78028;DHT22;74605;45.864;11.474;2024-03-06T09:10:07;10.20;74.70
78028;DHT22;74605;45.864;11.474;2024-03-06T09:12:33;10.40;73.50
78028;DHT22;74605;45.864;11.474;2024-03-06T09:15:00;10.40;73.70
78028;DHT22;74605;45.864;11.474;2024-03-06T09:17:27;10.60;73.60
78028;DHT22;74605;45.864;11.474;2024-03-06T09:19:53;10.40;72.90
78028;DHT22;74605;45.864;11.474;2024-03-06T09:22:19;10.60;72.60
78028;DHT22;74605;45.864;11.474;2024-03-06T09:24:45;10.50;73.10
78028;DHT22;74605;45.864;11.474;2024-03-06T09:27:12;10.80;72.70
78028;DHT22;74605;45.864;11.474;2024-03-06T09:29:40;11.30;71.80
78028;DHT22;74605;45.864;11.474;2024-03-06T09:32:06;11.30;72.00
78028;DHT22;74605;45.864;11.474;2024-03-06T09:34:32;11.20;71.80
78028;DHT22;74605;45.864;11.474;2024-03-06T09:36:58;11.20;71.50
78028;DHT22;74605;45.864;11.474;2024-03-06T09:39:25;11.00;71.10
78028;DHT22;74605;45.864;11.474;2024-03-06T09:41:51;11.30;71.80
78028;DHT22;74605;45.864;11.474;2024-03-06T09:44:17;11.80;71.10
78028;DHT22;74605;45.864;11.474;2024-03-06T09:46:45;12.00;71.20
78028;DHT22;74605;45.864;11.474;2024-03-06T09:49:13;12.50;70.10
78028;DHT22;74605;45.864;11.474;2024-03-06T09:51:44;12.10;69.70
78028;DHT22;74605;45.864;11.474;2024-03-06T09:54:16;12.10;69.40
78028;DHT22;74605;45.864;11.474;2024-03-06T09:56:46;11.30;69.30
78028;DHT22;74605;45.864;11.474;2024-03-06T09:59:13;11.40;69.30
78028;DHT22;74605;45.864;11.474;2024-03-06T10:06:45;11.90;69.90
78028;DHT22;74605;45.864;11.474;2024-03-06T10:09:11;12.70;69.10
78028;DHT22;74605;45.864;11.474;2024-03-06T10:11:40;13.00;68.00
78028;DHT22;74605;45.864;11.474;2024-03-06T10:14:08;12.70;67.60
78028;DHT22;74605;45.864;11.474;2024-03-06T10:16:36;13.30;68.20
78028;DHT22;74605;45.864;11.474;2024-03-06T10:19:21;13.10;68.20
78028;DHT22;74605;45.864;11.474;2024-03-06T10:21:48;13.90;67.50
78028;DHT22;74605;45.864;11.474;2024-03-06T10:24:21;13.50;67.10
78028;DHT22;74605;45.864;11.474;2024-03-06T10:26:49;13.30;67.50
78028;DHT22;74605;45.864;11.474;2024-03-06T10:29:17;13.10;67.40
78028;DHT22;74605;45.864;11.474;2024-03-06T10:31:54;13.50;67.90
78028;DHT22;74605;45.864;11.474;2024-03-06T10:34:24;13.90;66.50
78028;DHT22;74605;45.864;11.474;2024-03-06T10:36:58;14.10;65.90
78028;DHT22;74605;45.864;11.474;2024-03-06T10:39:25;14.00;66.40
78028;DHT22;74605;45.864;11.474;2024-03-06T10:41:55;14.40;66.20
78028;DHT22;74605;45.864;11.474;2024-03-06T10:44:25;14.00;66.40
78028;DHT22;74605;45.864;11.474;2024-03-06T10:46:58;13.90;66.90
78028;DHT22;74605;45.864;11.474;2024-03-06T10:49:25;13.50;66.20
78028;DHT22;74605;45.864;11.474;2024-03-06T10:52:06;13.30;65.10
78028;DHT22;74605;45.864;11.474;2024-03-06T10:54:33;13.40;64.70
78028;DHT22;74605;45.864;11.474;2024-03-06T10:57:05;14.00;64.00
78028;DHT22;74605;45.864;11.474;2024-03-06T10:59:31;13.70;63.60
78028;DHT22;74605;45.864;11.474;2024-03-06T11:01:58;13.30;63.90
78028;DHT22;74605;45.864;11.474;2024-03-06T11:04:29;13.50;64.60
78028;DHT22;74605;45.864;11.474;2024-03-06T11:06:59;13.10;64.60
78028;DHT22;74605;45.864;11.474;2024-03-06T11:09:26;13.60;64.00
78028;DHT22;74605;45.864;11.474;2024-03-06T11:11:53;14.00;63.90
78028;DHT22;74605;45.864;11.474;2024-03-06T11:14:23;13.80;63.40
78028;DHT22;74605;45.864;11.474;2024-03-06T11:17:03;14.20;63.60
78028;DHT22;74605;45.864;11.474;2024-03-06T11:22:18;14.20;62.80
78028;DHT22;74605;45.864;11.474;2024-03-06T11:24:43;14.20;63.70
78028;DHT22;74605;45.864;11.474;2024-03-06T11:27:10;13.90;64.60
78028;DHT22;74605;45.864;11.474;2024-03-06T11:30:06;14.50;64.00
78028;DHT22;74605;45.864;11.474;2024-03-06T11:32:58;14.20;63.70
78028;DHT22;74605;45.864;11.474;2024-03-06T11:35:24;14.10;63.90
78028;DHT22;74605;45.864;11.474;2024-03-06T11:37:50;14.50;63.50
78028;DHT22;74605;45.864;11.474;2024-03-06T11:40:26;14.40;63.30
78028;DHT22;74605;45.864;11.474;2024-03-06T11:42:53;14.40;63.50
78028;DHT22;74605;45.864;11.474;2024-03-06T11:45:19;14.60;62.70
78028;DHT22;74605;45.864;11.474;2024-03-06T11:50:25;14.50;62.10
78028;DHT22;74605;45.864;11.474;2024-03-06T11:52:52;13.90;63.10
78028;DHT22;74605;45.864;11.474;2024-03-06T11:55:17;13.00;63.30
78028;DHT22;74605;45.864;11.474;2024-03-06T11:57:46;13.00;63.00
78028;DHT22;74605;45.864;11.474;2024-03-06T12:00:13;12.70;63.20
78028;DHT22;74605;45.864;11.474;2024-03-06T12:02:40;13.20;64.70
78028;DHT22;74605;45.864;11.474;2024-03-06T12:05:07;13.40;64.00
78028;DHT22;74605;45.864;11.474;2024-03-06T12:07:56;13.40;63.50
78028;DHT22;74605;45.864;11.474;2024-03-06T12:10:22;12.80;64.20
78028;DHT22;74605;45.864;11.474;2024-03-06T12:12:48;12.70;65.70
78028;DHT22;74605;45.864;11.474;2024-03-06T12:15:14;12.70;65.40
78028;DHT22;74605;45.864;11.474;2024-03-06T12:17:50;12.60;67.20
78028;DHT22;74605;45.864;11.474;2024-03-06T12:20:18;13.00;64.30
78028;DHT22;74605;45.864;11.474;2024-03-06T12:25:17;12.80;64.60
78028;DHT22;74605;45.864;11.474;2024-03-06T12:27:43;13.00;65.30
78028;DHT22;74605;45.864;11.474;2024-03-06T12:30:10;13.30;64.10
78028;DHT22;74605;45.864;11.474;2024-03-06T12:32:39;13.50;63.80
78028;DHT22;74605;45.864;11.474;2024-03-06T12:35:05;13.40;63.80
78028;DHT22;74605;45.864;11.474;2024-03-06T12:37:32;13.20;64.10
78028;DHT22;74605;45.864;11.474;2024-03-06T12:39:58;12.80;65.40
78028;DHT22;74605;45.864;11.474;2024-03-06T12:42:24;12.50;65.70
78028;DHT22;74605;45.864;11.474;2024-03-06T12:44:51;12.20;66.00
78028;DHT22;74605;45.864;11.474;2024-03-06T12:47:17;11.90;66.60
78028;DHT22;74605;45.864;11.474;2024-03-06T12:49:43;12.10;66.90
78028;DHT22;74605;45.864;11.474;2024-03-06T12:52:09;12.10;65.70
78028;DHT22;74605;45.864;11.474;2024-03-06T12:54:35;12.20;66.40
78028;DHT22;74605;45.864;11.474;2024-03-06T12:57:01;12.30;65.60
78028;DHT22;74605;45.864;11.474;2024-03-06T12:59:28;12.40;65.50
78028;DHT22;74605;45.864;11.474;2024-03-06T13:01:54;12.20;66.60
78028;DHT22;74605;45.864;11.474;2024-03-06T13:04:20;12.40;66.90
78028;DHT22;74605;45.864;11.474;2024-03-06T13:06:46;12.50;67.10
78028;DHT22;74605;45.864;11.474;2024-03-06T13:09:12;12.70;65.70
78028;DHT22;74605;45.864;11.474;2024-03-06T13:11:40;12.50;67.00
78028;DHT22;74605;45.864;11.474;2024-03-06T13:14:08;12.10;67.10
78028;DHT22;74605;45.864;11.474;2024-03-06T13:16:37;12.10;67.00
78028;DHT22;74605;45.864;11.474;2024-03-06T13:19:03;11.80;67.10
78028;DHT22;74605;45.864;11.474;2024-03-06T13:21:29;11.60;67.40
78028;DHT22;74605;45.864;11.474;2024-03-06T13:23:55;11.90;67.90
78028;DHT22;74605;45.864;11.474;2024-03-06T13:26:21;12.50;66.70
78028;DHT22;74605;45.864;11.474;2024-03-06T13:28:47;11.80;65.70
78028;DHT22;74605;45.864;11.474;2024-03-06T13:31:13;11.90;66.00
78028;DHT22;74605;45.864;11.474;2024-03-06T13:33:39;12.30;65.10
78028;DHT22;74605;45.864;11.474;2024-03-06T13:36:05;12.50;65.30
78028;DHT22;74605;45.864;11.474;2024-03-06T13:38:32;12.50;65.50
78028;DHT22;74605;45.864;11.474;2024-03-06T13:40:58;12.10;65.80
78028;DHT22;74605;45.864;11.474;2024-03-06T13:43:25;12.10;65.90
78028;DHT22;74605;45.864;11.474;2024-03-06T13:45:51;11.90;66.00
78028;DHT22;74605;45.864;11.474;2024-03-06T13:48:18;12.00;65.90
78028;DHT22;74605;45.864;11.474;2024-03-06T13:50:44;12.00;65.60
78028;DHT22;74605;45.864;11.474;2024-03-06T13:53:11;12.00;65.70
78028;DHT22;74605;45.864;11.474;2024-03-06T13:55:37;11.50;66.40
78028;DHT22;74605;45.864;11.474;2024-03-06T13:58:04;11.90;65.40
78028;DHT22;74605;45.864;11.474;2024-03-06T14:00:29;12.00;65.00
78028;DHT22;74605;45.864;11.474;2024-03-06T14:02:55;11.60;64.50
78028;DHT22;74605;45.864;11.474;2024-03-06T14:05:22;11.50;65.50
78028;DHT22;74605;45.864;11.474;2024-03-06T14:07:51;11.50;67.90
78028;DHT22;74605;45.864;11.474;2024-03-06T14:10:17;11.20;71.50
78028;DHT22;74605;45.864;11.474;2024-03-06T14:12:47;11.40;71.90
78028;DHT22;74605;45.864;11.474;2024-03-06T14:15:20;11.00;72.20
78028;DHT22;74605;45.864;11.474;2024-03-06T14:17:48;10.70;72.90
78028;DHT22;74605;45.864;11.474;2024-03-06T14:20:14;10.80;73.40
78028;DHT22;74605;45.864;11.474;2024-03-06T14:22:43;10.80;72.40
78028;DHT22;74605;45.864;11.474;2024-03-06T14:25:10;10.80;72.30
78028;DHT22;74605;45.864;11.474;2024-03-06T14:27:36;10.90;72.60
78028;DHT22;74605;45.864;11.474;2024-03-06T14:30:06;10.90;72.00
78028;DHT22;74605;45.864;11.474;2024-03-06T14:32:39;10.70;72.30
78028;DHT22;74605;45.864;11.474;2024-03-06T14:35:05;10.50;72.70
78028;DHT22;74605;45.864;11.474;2024-03-06T14:37:31;11.00;72.90
78028;DHT22;74605;45.864;11.474;2024-03-06T14:39:57;11.10;72.30
78028;DHT22;74605;45.864;11.474;2024-03-06T14:42:23;10.90;69.10
78028;DHT22;74605;45.864;11.474;2024-03-06T14:44:49;10.90;68.30
78028;DHT22;74605;45.864;11.474;2024-03-06T14:47:15;11.00;68.60
78028;DHT22;74605;45.864;11.474;2024-03-06T14:49:44;11.10;67.90
78028;DHT22;74605;45.864;11.474;2024-03-06T14:52:11;11.10;67.50
78028;DHT22;74605;45.864;11.474;2024-03-06T14:54:39;11.10;67.50
78028;DHT22;74605;45.864;11.474;2024-03-06T14:57:07;10.80;68.30
78028;DHT22;74605;45.864;11.474;2024-03-06T14:59:33;10.80;68.40
78028;DHT22;74605;45.864;11.474;2024-03-06T15:01:59;11.10;69.20
78028;DHT22;74605;45.864;11.474;2024-03-06T15:04:25;11.20;69.10
78028;DHT22;74605;45.864;11.474;2024-03-06T15:06:51;11.20;70.60
78028;DHT22;74605;45.864;11.474;2024-03-06T15:09:18;11.00;70.20
78028;DHT22;74605;45.864;11.474;2024-03-06T15:11:49;11.00;68.10
78028;DHT22;74605;45.864;11.474;2024-03-06T15:14:20;11.10;68.20
78028;DHT22;74605;45.864;11.474;2024-03-06T15:16:46;11.40;68.40
78028;DHT22;74605;45.864;11.474;2024-03-06T15:19:13;11.00;69.40
78028;DHT22;74605;45.864;11.474;2024-03-06T15:21:38;11.10;69.40
78028;DHT22;74605;45.864;11.474;2024-03-06T15:24:04;11.10;68.80
78028;DHT22;74605;45.864;11.474;2024-03-06T15:26:31;10.70;68.70
78028;DHT22;74605;45.864;11.474;2024-03-06T15:28:57;10.70;69.00
78028;DHT22;74605;45.864;11.474;2024-03-06T15:31:24;10.80;69.10
78028;DHT22;74605;45.864;11.474;2024-03-06T15:33:51;10.70;68.90
78028;DHT22;74605;45.864;11.474;2024-03-06T15:36:17;10.60;69.50
78028;DHT22;74605;45.864;11.474;2024-03-06T15:38:43;10.80;70.40
78028;DHT22;74605;45.864;11.474;2024-03-06T15:41:09;10.80;71.30
78028;DHT22;74605;45.864;11.474;2024-03-06T15:43:38;10.80;72.30
78028;DHT22;74605;45.864;11.474;2024-03-06T15:46:04;10.50;73.50
78028;DHT22;74605;45.864;11.474;2024-03-06T15:48:30;10.60;73.80
78028;DHT22;74605;45.864;11.474;2024-03-06T15:50:58;10.70;73.70
78028;DHT22;74605;45.864;11.474;2024-03-06T15:53:25;10.40;74.60
78028;DHT22;74605;45.864;11.474;2024-03-06T15:55:54;10.50;74.10
78028;DHT22;74605;45.864;11.474;2024-03-06T15:58:22;10.30;74.50
78028;DHT22;74605;45.864;11.474;2024-03-06T16:00:48;10.40;74.90
78028;DHT22;74605;45.864;11.474;2024-03-06T16:03:14;10.50;74.80
78028;DHT22;74605;45.864;11.474;2024-03-06T16:05:40;10.20;75.60
78028;DHT22;74605;45.864;11.474;2024-03-06T16:08:06;10.40;75.10
78028;DHT22;74605;45.864;11.474;2024-03-06T16:10:32;10.40;75.20
78028;DHT22;74605;45.864;11.474;2024-03-06T16:12:59;10.20;75.60
78028;DHT22;74605;45.864;11.474;2024-03-06T16:15:25;10.40;75.80
78028;DHT22;74605;45.864;11.474;2024-03-06T16:17:51;10.40;75.60
78028;DHT22;74605;45.864;11.474;2024-03-06T16:20:17;10.30;75.40
78028;DHT22;74605;45.864;11.474;2024-03-06T16:22:43;10.20;75.80
78028;DHT22;74605;45.864;11.474;2024-03-06T16:25:09;10.10;76.10
78028;DHT22;74605;45.864;11.474;2024-03-06T16:27:36;10.20;76.00
78028;DHT22;74605;45.864;11.474;2024-03-06T16:30:03;10.40;75.80
78028;DHT22;74605;45.864;11.474;2024-03-06T16:32:29;10.40;75.60
78028;DHT22;74605;45.864;11.474;2024-03-06T16:34:56;10.30;75.30
78028;DHT22;74605;45.864;11.474;2024-03-06T16:37:22;10.20;75.90
78028;DHT22;74605;45.864;11.474;2024-03-06T16:39:47;9.90;76.20
78028;DHT22;74605;45.864;11.474;2024-03-06T16:42:15;10.00;76.20
78028;DHT22;74605;45.864;11.474;2024-03-06T16:44:42;9.80;76.40
78028;DHT22;74605;45.864;11.474;2024-03-06T16:47:08;9.90;76.30
78028;DHT22;74605;45.864;11.474;2024-03-06T16:49:34;9.80;76.50
78028;DHT22;74605;45.864;11.474;2024-03-06T16:52:00;9.80;76.70
78028;DHT22;74605;45.864;11.474;2024-03-06T16:54:26;10.00;76.90
78028;DHT22;74605;45.864;11.474;2024-03-06T16:56:53;9.50;77.00
78028;DHT22;74605;45.864;11.474;2024-03-06T16:59:19;9.50;77.50
78028;DHT22;74605;45.864;11.474;2024-03-06T17:01:45;9.50;77.00
78028;DHT22;74605;45.864;11.474;2024-03-06T17:04:10;9.00;78.70
78028;DHT22;74605;45.864;11.474;2024-03-06T17:06:36;9.10;78.70
78028;DHT22;74605;45.864;11.474;2024-03-06T17:09:02;9.20;78.30
78028;DHT22;74605;45.864;11.474;2024-03-06T17:11:31;9.30;78.40
78028;DHT22;74605;45.864;11.474;2024-03-06T17:13:57;9.40;78.70
78028;DHT22;74605;45.864;11.474;2024-03-06T17:16:23;9.40;77.80
78028;DHT22;74605;45.864;11.474;2024-03-06T17:18:49;9.50;78.70
78028;DHT22;74605;45.864;11.474;2024-03-06T17:21:15;9.60;78.30
78028;DHT22;74605;45.864;11.474;2024-03-06T17:23:41;9.60;78.00
78028;DHT22;74605;45.864;11.474;2024-03-06T17:26:09;9.20;78.30
78028;DHT22;74605;45.864;11.474;2024-03-06T17:28:37;8.90;79.60
78028;DHT22;74605;45.864;11.474;2024-03-06T17:31:05;9.00;79.10
78028;DHT22;74605;45.864;11.474;2024-03-06T17:33:31;8.80;79.30
78028;DHT22;74605;45.864;11.474;2024-03-06T17:35:57;8.80;79.80
78028;DHT22;74605;45.864;11.474;2024-03-06T17:38:25;8.90;79.90
78028;DHT22;74605;45.864;11.474;2024-03-06T17:40:51;8.70;79.90
78028;DHT22;74605;45.864;11.474;2024-03-06T17:43:17;8.50;80.60
78028;DHT22;74605;45.864;11.474;2024-03-06T17:45:43;8.70;80.80
78028;DHT22;74605;45.864;11.474;2024-03-06T17:48:09;8.70;80.60
78028;DHT22;74605;45.864;11.474;2024-03-06T17:50:35;9.00;80.60
78028;DHT22;74605;45.864;11.474;2024-03-06T17:53:04;9.20;79.60
78028;DHT22;74605;45.864;11.474;2024-03-06T17:55:30;8.90;79.80
78028;DHT22;74605;45.864;11.474;2024-03-06T17:57:58;8.50;80.20
78028;DHT22;74605;45.864;11.474;2024-03-06T18:00:24;8.10;81.20
78028;DHT22;74605;45.864;11.474;2024-03-06T18:02:51;8.30;81.60
78028;DHT22;74605;45.864;11.474;2024-03-06T18:05:21;8.00;81.30
78028;DHT22;74605;45.864;11.474;2024-03-06T18:07:48;8.40;80.70
78028;DHT22;74605;45.864;11.474;2024-03-06T18:10:14;8.40;80.60
78028;DHT22;74605;45.864;11.474;2024-03-06T18:12:40;8.30;80.30
78028;DHT22;74605;45.864;11.474;2024-03-06T18:15:06;8.40;80.40
78028;DHT22;74605;45.864;11.474;2024-03-06T18:17:33;8.50;80.10
78028;DHT22;74605;45.864;11.474;2024-03-06T18:19:59;8.50;80.10
78028;DHT22;74605;45.864;11.474;2024-03-06T18:22:25;8.30;80.20
78028;DHT22;74605;45.864;11.474;2024-03-06T18:24:51;8.40;80.10
78028;DHT22;74605;45.864;11.474;2024-03-06T18:27:17;8.70;79.70
78028;DHT22;74605;45.864;11.474;2024-03-06T18:29:43;8.50;79.70
78028;DHT22;74605;45.864;11.474;2024-03-06T18:32:12;8.20;80.30
78028;DHT22;74605;45.864;11.474;2024-03-06T18:34:38;8.40;80.20
78028;DHT22;74605;45.864;11.474;2024-03-06T18:37:04;8.30;79.90
78028;DHT22;74605;45.864;11.474;2024-03-06T18:39:30;8.50;79.90
78028;DHT22;74605;45.864;11.474;2024-03-06T18:41:56;8.20;80.70
78028;DHT22;74605;45.864;11.474;2024-03-06T18:44:24;8.30;80.20
78028;DHT22;74605;45.864;11.474;2024-03-06T18:46:50;8.40;80.60
78028;DHT22;74605;45.864;11.474;2024-03-06T18:49:15;8.70;80.30
78028;DHT22;74605;45.864;11.474;2024-03-06T18:51:48;8.80;80.00
78028;DHT22;74605;45.864;11.474;2024-03-06T18:54:15;8.80;80.20
78028;DHT22;74605;45.864;11.474;2024-03-06T18:56:42;8.50;80.30
78028;DHT22;74605;45.864;11.474;2024-03-06T18:59:08;8.50;80.00
78028;DHT22;74605;45.864;11.474;2024-03-06T19:01:38;8.60;80.60
78028;DHT22;74605;45.864;11.474;2024-03-06T19:04:05;8.10;80.60
78028;DHT22;74605;45.864;11.474;2024-03-06T19:06:30;7.70;82.10
78028;DHT22;74605;45.864;11.474;2024-03-06T19:08:56;8.10;81.80
78028;DHT22;74605;45.864;11.474;2024-03-06T19:11:22;8.20;81.40
78028;DHT22;74605;45.864;11.474;2024-03-06T19:13:48;8.60;81.10
78028;DHT22;74605;45.864;11.474;2024-03-06T19:16:15;8.50;80.30
78028;DHT22;74605;45.864;11.474;2024-03-06T19:18:41;8.30;80.60
78028;DHT22;74605;45.864;11.474;2024-03-06T19:21:07;8.40;80.30
78028;DHT22;74605;45.864;11.474;2024-03-06T19:23:34;8.50;80.40
78028;DHT22;74605;45.864;11.474;2024-03-06T19:26:00;8.10;79.90
78028;DHT22;74605;45.864;11.474;2024-03-06T19:28:25;8.00;81.00
78028;DHT22;74605;45.864;11.474;2024-03-06T19:30:51;7.80;81.70
78028;DHT22;74605;45.864;11.474;2024-03-06T19:33:19;8.00;81.40
78028;DHT22;74605;45.864;11.474;2024-03-06T19:35:45;7.80;81.40
78028;DHT22;74605;45.864;11.474;2024-03-06T19:38:11;7.90;81.10
78028;DHT22;74605;45.864;11.474;2024-03-06T19:40:41;8.10;81.20
78028;DHT22;74605;45.864;11.474;2024-03-06T19:43:07;8.20;80.60
78028;DHT22;74605;45.864;11.474;2024-03-06T19:45:33;8.30;80.60
78028;DHT22;74605;45.864;11.474;2024-03-06T19:47:59;8.30;80.30
78028;DHT22;74605;45.864;11.474;2024-03-06T19:50:25;8.00;80.30
78028;DHT22;74605;45.864;11.474;2024-03-06T19:52:51;8.10;80.70
78028;DHT22;74605;45.864;11.474;2024-03-06T19:55:18;8.10;80.80
78028;DHT22;74605;45.864;11.474;2024-03-06T19:57:45;8.00;80.60
78028;DHT22;74605;45.864;11.474;2024-03-06T20:00:13;7.70;80.70
78028;DHT22;74605;45.864;11.474;2024-03-06T20:02:40;7.70;80.30
78028;DHT22;74605;45.864;11.474;2024-03-06T20:05:06;7.70;80.70
78028;DHT22;74605;45.864;11.474;2024-03-06T20:07:33;7.80;80.60
78028;DHT22;74605;45.864;11.474;2024-03-06T20:09:59;7.90;80.40
78028;DHT22;74605;45.864;11.474;2024-03-06T20:12:25;7.90;80.00
78028;DHT22;74605;45.864;11.474;2024-03-06T20:14:51;7.50;80.20
78028;DHT22;74605;45.864;11.474;2024-03-06T20:17:17;7.60;81.10
78028;DHT22;74605;45.864;11.474;2024-03-06T20:19:43;7.90;81.30
78028;DHT22;74605;45.864;11.474;2024-03-06T20:22:09;7.80;80.70
78028;DHT22;74605;45.864;11.474;2024-03-06T20:24:35;7.80;80.90
78028;DHT22;74605;45.864;11.474;2024-03-06T20:27:01;7.90;80.40
78028;DHT22;74605;45.864;11.474;2024-03-06T20:29:28;7.20;81.80
78028;DHT22;74605;45.864;11.474;2024-03-06T20:31:54;7.30;81.90
78028;DHT22;74605;45.864;11.474;2024-03-06T20:34:21;7.40;81.80
78028;DHT22;74605;45.864;11.474;2024-03-06T20:36:47;7.60;81.40
78028;DHT22;74605;45.864;11.474;2024-03-06T20:39:14;7.30;81.50
78028;DHT22;74605;45.864;11.474;2024-03-06T20:41:44;7.40;81.40
78028;DHT22;74605;45.864;11.474;2024-03-06T20:44:10;7.50;81.10
78028;DHT22;74605;45.864;11.474;2024-03-06T20:46:36;7.40;80.60
78028;DHT22;74605;45.864;11.474;2024-03-06T20:49:03;7.50;80.90
78028;DHT22;74605;45.864;11.474;2024-03-06T20:51:29;7.50;80.50
78028;DHT22;74605;45.864;11.474;2024-03-06T20:53:57;7.80;80.80
78028;DHT22;74605;45.864;11.474;2024-03-06T20:56:27;7.80;80.50
78028;DHT22;74605;45.864;11.474;2024-03-06T20:58:53;7.60;80.50
78028;DHT22;74605;45.864;11.474;2024-03-06T21:01:19;7.80;80.30
78028;DHT22;74605;45.864;11.474;2024-03-06T21:03:46;7.70;80.40
78028;DHT22;74605;45.864;11.474;2024-03-06T21:06:12;7.20;81.20
78028;DHT22;74605;45.864;11.474;2024-03-06T21:08:39;7.30;80.70
78028;DHT22;74605;45.864;11.474;2024-03-06T21:11:05;7.40;81.00
78028;DHT22;74605;45.864;11.474;2024-03-06T21:13:33;7.40;80.60
78028;DHT22;74605;45.864;11.474;2024-03-06T21:15:59;7.70;80.60
78028;DHT22;74605;45.864;11.474;2024-03-06T21:18:25;7.60;80.40
78028;DHT22;74605;45.864;11.474;2024-03-06T21:20:51;7.60;80.10
78028;DHT22;74605;45.864;11.474;2024-03-06T21:23:18;7.10;80.60
78028;DHT22;74605;45.864;11.474;2024-03-06T21:25:44;7.00;81.40
78028;DHT22;74605;45.864;11.474;2024-03-06T21:28:11;6.80;81.40
78028;DHT22;74605;45.864;11.474;2024-03-06T21:30:38;6.90;81.60
78028;DHT22;74605;45.864;11.474;2024-03-06T21:33:04;6.70;81.40
78028;DHT22;74605;45.864;11.474;2024-03-06T21:35:30;6.80;81.40
78028;DHT22;74605;45.864;11.474;2024-03-06T21:37:56;6.70;81.20
78028;DHT22;74605;45.864;11.474;2024-03-06T21:40:22;7.00;81.00
78028;DHT22;74605;45.864;11.474;2024-03-06T21:42:49;7.10;81.20
78028;DHT22;74605;45.864;11.474;2024-03-06T21:45:16;7.10;80.30
78028;DHT22;74605;45.864;11.474;2024-03-06T21:47:41;7.30;80.50
78028;DHT22;74605;45.864;11.474;2024-03-06T21:50:09;7.20;80.10
78028;DHT22;74605;45.864;11.474;2024-03-06T21:52:35;7.10;80.20
78028;DHT22;74605;45.864;11.474;2024-03-06T21:55:01;7.30;80.30
78028;DHT22;74605;45.864;11.474;2024-03-06T21:57:28;7.40;79.90
78028;DHT22;74605;45.864;11.474;2024-03-06T21:59:54;7.30;79.70
78028;DHT22;74605;45.864;11.474;2024-03-06T22:02:21;7.10;79.60
78028;DHT22;74605;45.864;11.474;2024-03-06T22:04:47;7.20;79.90
78028;DHT22;74605;45.864;11.474;2024-03-06T22:07:13;7.00;79.80
78028;DHT22;74605;45.864;11.474;2024-03-06T22:09:40;6.70;80.40
78028;DHT22;74605;45.864;11.474;2024-03-06T22:12:06;6.50;80.70
78028;DHT22;74605;45.864;11.474;2024-03-06T22:14:33;6.40;81.00
78028;DHT22;74605;45.864;11.474;2024-03-06T22:16:59;6.50;81.10
78028;DHT22;74605;45.864;11.474;2024-03-06T22:19:25;6.60;80.90
78028;DHT22;74605;45.864;11.474;2024-03-06T22:21:51;6.60;81.00
78028;DHT22;74605;45.864;11.474;2024-03-06T22:24:18;6.70;80.50
78028;DHT22;74605;45.864;11.474;2024-03-06T22:26:44;6.50;80.80
78028;DHT22;74605;45.864;11.474;2024-03-06T22:29:10;6.80;80.60
78028;DHT22;74605;45.864;11.474;2024-03-06T22:31:37;6.80;80.10
78028;DHT22;74605;45.864;11.474;2024-03-06T22:34:06;6.80;80.20
78028;DHT22;74605;45.864;11.474;2024-03-06T22:36:33;7.20;80.30
78028;DHT22;74605;45.864;11.474;2024-03-06T22:38:59;7.10;79.90
78028;DHT22;74605;45.864;11.474;2024-03-06T22:41:26;7.20;79.20
78028;DHT22;74605;45.864;11.474;2024-03-06T22:43:52;6.90;79.50
78028;DHT22;74605;45.864;11.474;2024-03-06T22:46:18;7.00;79.40
78028;DHT22;74605;45.864;11.474;2024-03-06T22:48:44;7.00;79.50
78028;DHT22;74605;45.864;11.474;2024-03-06T22:51:10;6.90;79.50
78028;DHT22;74605;45.864;11.474;2024-03-06T22:53:36;7.00;79.60
78028;DHT22;74605;45.864;11.474;2024-03-06T22:56:03;7.00;79.70
78028;DHT22;74605;45.864;11.474;2024-03-06T22:58:29;7.00;80.50
78028;DHT22;74605;45.864;11.474;2024-03-06T23:00:55;7.10;80.60
78028;DHT22;74605;45.864;11.474;2024-03-06T23:03:22;7.20;80.60
78028;DHT22;74605;45.864;11.474;2024-03-06T23:09:10;7.10;80.00
78028;DHT22;74605;45.864;11.474;2024-03-06T23:11:36;7.10;80.00
78028;DHT22;74605;45.864;11.474;2024-03-06T23:14:01;7.10;79.90
78028;DHT22;74605;45.864;11.474;2024-03-06T23:16:27;6.90;79.60
78028;DHT22;74605;45.864;11.474;2024-03-06T23:18:53;6.70;80.10
78028;DHT22;74605;45.864;11.474;2024-03-06T23:21:21;6.60;80.20
78028;DHT22;74605;45.864;11.474;2024-03-06T23:23:48;6.60;80.20